Latest Weather Observations for Grove

IDT60901

Issued at 9:51 pm EST Saturday 1 August 2015 (issued every 10 minutes, with the page automatically refreshed every 10 minutes)

About weather observations | Map of Hobart area stations | Latest observations for Hobart area | Other Formats
Station Details ID: 094220 Name: GROVE (RESEARCH STATION) Lat: -42.99 Lon: 147.07 Height: 65.0 m
Data from the previous 72 hours. | See also: Recent months at Grove
Date/Time
EST
Tmp

°C
App
Tmp
°C
Dew
Point
°C
Rel
Hum
%
Delta-T

°C
Wind Press
QNH
hPa
Press
MSL
hPa
Rain
since
9 am
mm
Dir
 
Spd
km/h
Gust
km/h
Spd
kts
Gust
kts
01/09:30pm 7.2 3.6 -1.9 52 3.4 NNE 7 13 4 7 - - 2.4
01/09:00pm 6.8 2.6 -1.1 57 3.0 NW 11 22 6 12 - - 2.4
01/08:30pm 7.4 0.2 -2.0 51 3.5 NNW 26 39 14 21 - - 2.4
01/08:00pm 7.1 2.2 -3.1 48 3.7 NNW 13 24 7 13 - - 2.4
01/07:30pm 7.3 2.7 -4.0 44 4.0 NW 11 22 6 12 - - 2.4
01/07:00pm 7.0 2.2 -2.2 52 3.4 WNW 13 26 7 14 - - 2.4
01/06:30pm 6.8 2.1 -1.8 54 3.2 W 13 24 7 13 - - 2.4
01/06:00pm 6.3 2.1 -1.1 59 2.8 W 11 24 6 13 - - 2.4
01/05:30pm 6.8 2.5 -1.8 54 3.2 W 11 26 6 14 - - 2.4
01/05:00pm 7.1 2.8 -1.7 53 3.3 NW 11 20 6 11 - - 2.4
01/04:30pm 7.3 2.6 -2.1 51 3.5 WSW 13 41 7 22 - - 2.4
01/04:00pm 7.7 1.7 -1.9 50 3.6 WNW 20 37 11 20 - - 2.4
01/03:30pm 8.4 1.9 -2.6 46 4.1 W 22 35 12 19 - - 2.4
01/03:00pm 8.6 1.9 -1.3 50 3.8 WNW 24 44 13 24 - - 2.4
01/02:42pm 8.7 1.1 -2.2 46 4.1 W 28 54 15 29 - - 2.4
01/02:30pm 8.9 2.1 -1.5 48 4.0 W 24 35 13 19 - - 2.4
01/02:11pm 8.6 0.9 -2.7 45 4.2 W 28 46 15 25 - - 2.4
01/02:00pm 8.6 2.7 -0.9 51 3.7 W 20 28 11 15 - - 2.4
01/01:30pm 8.0 3.2 0.5 59 3.0 W 15 22 8 12 - - 2.4
01/01:00pm 6.5 1.5 1.5 70 2.0 WNW 17 28 9 15 - - 2.4
01/12:30pm 4.4 -3.5 1.3 80 1.2 W 32 54 17 29 - - 2.0
01/12:22pm 6.4 -0.9 -0.1 63 2.5 W 28 48 15 26 - - 1.6
01/12:00pm 7.7 1.9 0.1 58 3.0 WSW 20 37 11 20 - - 1.6
01/11:30am 8.0 2.2 -1.4 51 3.6 W 19 33 10 18 - - 1.6
01/11:00am 7.0 2.8 1.9 70 2.1 W 13 20 7 11 - - 1.6
01/10:30am 4.6 -2.6 1.0 77 1.4 W 28 50 15 27 - - 1.6
01/10:27am 4.7 -2.5 0.6 75 1.6 W 28 50 15 27 - - 1.6
01/10:00am 6.2 1.4 0.3 66 2.3 W 15 30 8 16 - - 1.4
01/09:30am 4.2 -3.3 1.1 80 1.2 W 30 48 16 26 - - 1.2
01/09:26am 4.4 -2.8 0.8 77 1.4 W 28 48 15 26 - - 1.0
01/09:00am 6.0 0.7 -0.9 61 2.6 W 17 43 9 23 - - 5.0
01/08:30am 5.1 2.3 2.9 86 0.9 SW 7 13 4 7 - - 5.0
01/08:00am 5.0 1.2 1.5 78 1.4 W 11 22 6 12 - - 5.0
01/07:30am 5.1 1.3 3.7 91 0.6 SW 13 19 7 10 - - 3.8
01/07:00am 5.5 1.4 4.3 92 0.5 SW 15 20 8 11 - - 3.4
01/06:30am 6.2 3.0 3.1 80 1.3 W 9 15 5 8 - - 3.0
01/06:00am 6.7 3.6 3.4 79 1.4 W 9 13 5 7 - - 2.6
01/05:30am 6.5 4.0 4.9 89 0.7 WSW 7 11 4 6 - - 2.4
01/05:00am 7.2 3.4 3.9 79 1.4 W 13 20 7 11 - - 1.6
01/04:30am 8.3 2.6 3.1 70 2.2 NNW 22 46 12 25 - - 0.4
01/04:00am 8.9 3.5 2.5 64 2.7 NNW 20 39 11 21 - - 0.2
01/03:30am 9.6 2.1 1.1 55 3.5 NNW 30 54 16 29 - - 0.0
01/03:03am 10.3 2.9 -0.4 47 4.3 NNW 28 74 15 40 - - 0.0
01/03:00am 10.1 2.8 -0.1 49 4.1 N 28 54 15 29 - - 0.0
01/02:42am 10.3 -0.5 -0.4 47 4.3 N 46 67 25 36 - - 0.0
01/02:30am 9.8 2.9 0.1 51 3.9 NNW 26 52 14 28 - - 0.0
01/02:11am 10.2 2.1 -0.3 48 4.2 NNW 32 72 17 39 - - 0.0
01/02:10am 10.2 2.9 -0.3 48 4.2 NNW 28 52 15 28 - - 0.0
01/02:00am 10.0 3.8 -0.2 49 4.1 N 22 44 12 24 - - 0.0
01/01:30am 10.1 4.3 -0.4 48 4.2 N 20 44 11 24 - - 0.0
01/01:00am 9.7 4.1 0.0 51 3.9 NNW 19 44 10 24 - - 0.0
01/12:30am 9.6 4.5 0.5 53 3.7 NNW 17 28 9 15 - - 0.0
01/12:00am 9.3 3.6 0.4 54 3.6 NNW 20 37 11 20 - - 0.0
 
Date/Time
EST
Tmp

°C
App
Tmp
°C
Dew
Point
°C
Rel
Hum
%
Delta-T

°C
Wind Press
QNH
hPa
Press
MSL
hPa
Rain
since
9 am
mm
Dir
 
Spd
km/h
Gust
km/h
Spd
kts
Gust
kts
31/11:30pm 9.1 3.0 0.1 53 3.6 NNW 22 35 12 19 - - 0.0
31/11:00pm 8.9 4.1 0.2 54 3.5 N 15 26 8 14 - - 0.0
31/10:30pm 8.7 3.1 0.2 55 3.4 N 19 35 10 19 - - 0.0
31/10:00pm 8.4 4.0 0.4 57 3.2 N 13 26 7 14 - - 0.0
31/09:30pm 8.6 3.8 0.4 56 3.3 N 15 30 8 16 - - 0.0
31/09:00pm 8.6 4.2 0.4 56 3.3 NNW 13 26 7 14 - - 0.0
31/08:30pm 8.8 3.6 0.0 54 3.5 NNW 17 37 9 20 - - 0.0
31/08:00pm 8.7 3.9 0.2 55 3.4 NW 15 24 8 13 - - 0.0
31/07:30pm 8.8 4.8 0.3 55 3.4 N 11 22 6 12 - - 0.0
31/07:00pm 7.9 4.0 1.0 61 2.8 NNE 11 20 6 11 - - 0.0
31/06:30pm 8.5 4.9 0.8 58 3.1 NNE 9 15 5 8 - - 0.0
31/06:00pm 8.9 4.1 0.2 54 3.5 N 15 22 8 12 - - 0.0
31/05:30pm 8.4 4.9 1.0 59 3.0 N 9 17 5 9 - - 0.0
31/05:00pm 9.0 3.9 0.6 55 3.4 NNW 17 24 9 13 - - 0.0
31/04:30pm 9.2 6.1 1.5 58 3.2 WNW 7 15 4 8 - - 0.0
31/04:00pm 9.1 6.4 2.5 63 2.8 N 6 11 3 6 - - 0.0
31/03:30pm 9.5 5.8 2.2 60 3.1 NNE 11 19 6 10 - - 0.0
31/03:00pm 10.5 7.5 2.0 55 3.6 NNW 7 17 4 9 - - 0.0
31/02:30pm 10.7 6.6 2.0 55 3.7 N 13 26 7 14 - - 0.0
31/02:00pm 10.5 6.6 1.4 53 3.8 N 11 24 6 13 - - 0.0
31/01:30pm 10.5 6.4 2.0 55 3.6 NE 13 22 7 12 - - 0.0
31/01:00pm 9.0 3.5 1.8 60 3.0 N 20 35 11 19 - - 0.0
31/12:30pm 8.3 4.6 2.3 66 2.5 N 11 20 6 11 - - 0.0
31/12:00pm 8.4 4.0 0.4 57 3.2 N 13 24 7 13 - - 0.0
31/11:30am 9.2 4.7 -0.4 51 3.8 NNW 13 24 7 13 - - 0.0
31/11:00am 8.7 2.9 -0.1 54 3.5 NNW 20 30 11 16 - - 0.0
31/10:30am 9.4 5.4 0.8 55 3.5 NNW 11 20 6 11 - - 0.0
31/10:00am 6.5 3.4 1.5 70 2.0 W 7 9 4 5 - - 0.0
31/09:30am 5.9 2.8 1.4 73 1.8 WNW 7 11 4 6 - - 0.0
31/09:00am 4.6 2.2 2.1 84 1.0 NE 4 9 2 5 - - 1.2
31/08:30am 4.0 1.1 1.4 83 1.0 NE 6 9 3 5 - - 1.2
31/08:00am 3.4 0.3 1.1 85 0.9 ESE 7 9 4 5 - - 1.2
31/07:30am 3.5 0.5 0.9 83 1.0 N 6 9 3 5 - - 1.2
31/07:00am 2.9 0.2 0.2 82 1.0 W 4 9 2 5 - - 1.2
31/06:30am 3.0 0.3 0.3 82 1.0 N 4 9 2 5 - - 1.2
31/06:00am 3.3 0.5 -0.5 76 1.4 SW 4 7 2 4 - - 1.2
31/05:30am 4.1 0.8 -1.4 67 2.0 S 6 11 3 6 - - 1.2
31/05:00am 5.9 1.0 -3.1 52 3.2 W 13 20 7 11 - - 1.2
31/04:30am 3.8 0.0 -1.1 70 1.8 WSW 9 26 5 14 - - 1.2
31/04:00am 2.9 -0.1 0.8 86 0.8 WNW 6 7 3 4 - - 1.0
31/03:30am 4.1 1.3 -0.5 72 1.7 S 4 7 2 4 - - 1.0
31/03:00am 5.0 1.2 -0.6 67 2.1 WSW 9 19 5 10 - - 1.0
31/02:30am 3.8 1.3 1.5 85 0.9 WNW 4 9 2 5 - - 1.0
31/02:00am 4.4 0.8 0.8 77 1.4 S 9 11 5 6 - - 1.0
31/01:30am 5.2 2.0 0.9 74 1.7 WSW 7 13 4 7 - - 1.0
31/01:00am 4.5 1.4 1.5 81 1.2 WNW 7 9 4 5 - - 1.0
31/12:30am 5.5 2.0 1.2 74 1.7 W 9 15 5 8 - - 1.0
31/12:00am 5.7 1.1 1.7 75 1.6 SW 15 26 8 14 - - 1.0
 
Date/Time
EST
Tmp

°C
App
Tmp
°C
Dew
Point
°C
Rel
Hum
%
Delta-T

°C
Wind Press
QNH
hPa
Press
MSL
hPa
Rain
since
9 am
mm
Dir
 
Spd
km/h
Gust
km/h
Spd
kts
Gust
kts
30/11:30pm 6.2 2.2 0.6 67 2.2 WSW 11 17 6 9 - - 1.0
30/11:00pm 6.1 1.8 1.3 71 1.9 W 13 20 7 11 - - 1.0
30/10:30pm 5.9 1.6 1.1 71 1.9 WSW 13 19 7 10 - - 1.0
30/10:00pm 6.1 -0.7 0.8 69 2.1 WSW 26 46 14 25 - - 1.0
30/09:53pm 6.3 -0.9 1.0 69 2.1 W 28 46 15 25 - - 1.0
30/09:30pm 6.3 2.0 3.5 82 1.2 WSW 15 32 8 17 - - 0.8
30/09:00pm 7.7 1.5 2.2 68 2.3 W 24 41 13 22 - - 0.6
30/08:30pm 8.3 2.5 2.3 66 2.5 W 22 41 12 22 - - 0.4
30/08:00pm 8.8 4.0 2.4 64 2.7 WNW 17 33 9 18 - - 0.4
30/07:30pm 9.2 5.0 3.7 68 2.4 W 15 32 8 17 - - 0.4
30/07:00pm 9.4 4.6 5.7 78 1.7 W 20 32 11 17 - - 0.4
30/06:30pm 10.4 5.2 3.6 63 3.0 NNW 20 35 11 19 - - 0.0
30/06:00pm 10.5 4.4 2.9 59 3.3 NNW 24 39 13 21 - - 0.0
30/05:30pm 10.6 4.9 3.0 59 3.3 N 22 44 12 24 - - 0.0
30/05:00pm 11.5 6.1 2.5 54 3.9 NNW 20 39 11 21 - - 0.0
30/04:48pm 11.7 4.8 2.5 53 4.0 NNW 28 46 15 25 - - 0.0
30/04:30pm 11.9 6.5 2.5 52 4.1 NNW 20 39 11 21 - - 0.0
30/04:00pm 11.7 6.5 3.3 56 3.7 NNW 20 39 11 21 - - 0.0
30/03:30pm 12.3 6.2 3.0 53 4.1 NNW 24 44 13 24 - - 0.0
30/03:00pm 12.8 5.9 2.3 49 4.6 N 28 52 15 28 - - 0.0
30/02:30pm 13.6 6.6 2.2 46 5.0 N 28 50 15 27 - - 0.0
30/02:00pm 13.7 6.7 1.7 44 5.2 NNW 28 57 15 31 - - 0.0
30/01:56pm 13.6 4.7 0.6 41 5.5 NW 37 57 20 31 - - 0.0
30/01:40pm 13.5 5.0 1.1 43 5.3 N 35 54 19 29 - - 0.0
30/01:39pm 13.4 4.5 0.6 41 5.4 N 37 54 20 29 - - 0.0
30/01:37pm 13.4 6.2 0.6 41 5.4 NNW 28 50 15 27 - - 0.0
30/01:30pm 13.6 8.2 1.0 42 5.4 NNW 19 56 10 30 - - 0.0
30/01:18pm 13.3 4.7 0.5 41 5.4 NNW 35 57 19 31 - - 0.0
30/01:17pm 13.3 3.5 0.1 40 5.5 NNW 41 57 22 31 - - 0.0
30/01:00pm 13.3 6.8 0.5 41 5.4 N 24 44 13 24 - - 0.0
30/12:36pm 13.4 6.1 0.3 40 5.5 N 28 54 15 29 - - 0.0
30/12:30pm 13.5 7.9 0.1 40 5.6 NW 19 50 10 27 - - 0.0
30/12:00pm 13.0 6.1 0.0 41 5.4 N 26 52 14 28 - - 0.0
30/11:31am 12.7 5.0 0.2 42 5.2 ENE 30 52 16 28 - - 0.0
30/11:30am 13.1 8.5 1.5 45 5.0 N 15 28 8 15 - - 0.0
30/11:00am 12.4 7.1 2.0 49 4.5 NNE 19 37 10 20 - - 0.0
30/10:30am 11.9 8.0 1.3 48 4.5 NE 11 26 6 14 - - 0.0
30/10:00am 11.4 6.0 1.2 49 4.3 NW 19 41 10 22 - - 0.0
30/09:30am 10.9 5.4 0.8 49 4.2 NNW 19 43 10 23 - - 0.0
30/09:18am 10.7 2.7 0.5 49 4.2 NW 32 52 17 28 - - 0.0
30/09:00am 10.5 5.8 0.8 51 4.0 NNW 15 39 8 21 - - 0.0
30/08:30am 10.2 6.3 1.0 53 3.8 WNW 11 24 6 13 - - 0.0
30/08:00am 9.8 6.8 1.7 57 3.4 NW 7 15 4 8 - - 0.0
30/07:30am 9.9 6.1 1.5 56 3.5 WSW 11 19 6 10 - - 0.0
30/07:00am 9.9 6.0 1.2 54 3.6 SW 11 20 6 11 - - 0.0
30/06:30am 10.3 6.0 0.8 51 3.9 NW 13 35 7 19 - - 0.0
30/06:00am 9.9 6.0 1.2 54 3.6 SE 11 20 6 11 - - 0.0
30/05:30am 9.6 6.2 1.7 58 3.3 WNW 9 28 5 15 - - 0.0
30/05:00am 9.3 6.4 1.6 58 3.2 NNE 6 9 3 5 - - 0.0
30/04:30am 9.3 6.0 2.2 61 3.0 ENE 9 17 5 9 - - 0.0
30/04:00am 9.4 6.0 2.0 60 3.1 ENE 9 11 5 6 - - 0.0
30/03:30am 9.9 5.3 1.8 57 3.4 NNE 15 24 8 13 - - 0.0
30/03:00am 9.6 6.4 2.8 62 2.9 N 9 19 5 10 - - 0.0
30/02:30am 9.9 6.7 3.2 63 2.9 N 9 19 5 10 - - 0.0
30/02:00am 10.5 5.4 3.2 60 3.2 N 19 35 10 19 - - 0.0
30/01:30am 9.9 6.8 3.5 64 2.8 ESE 9 15 5 8 - - 0.0
30/01:00am 10.8 6.9 3.3 60 3.3 N 13 24 7 13 - - 0.0
30/12:30am 10.7 6.0 3.4 60 3.2 NNW 17 28 9 15 - - 0.0
30/12:00am 10.8 5.7 3.3 60 3.3 NNW 19 32 10 17 - - 0.0
 
Date/Time
EST
Tmp

°C
App
Tmp
°C
Dew
Point
°C
Rel
Hum
%
Delta-T

°C
Wind Press
QNH
hPa
Press
MSL
hPa
Rain
since
9 am
mm
Dir
 
Spd
km/h
Gust
km/h
Spd
kts
Gust
kts
29/11:30pm 10.9 6.2 3.4 60 3.3 NNW 17 24 9 13 - - 0.0
29/11:00pm 10.6 5.9 3.3 60 3.2 N 17 24 9 13 - - 0.0
29/10:30pm 10.7 6.4 3.1 59 3.3 NNW 15 28 8 15 - - 0.0
29/10:00pm 10.4 7.0 3.8 63 2.9 NNW 11 17 6 9 - - 0.0

Latest Capital City Observations: Canberra | Sydney | Melbourne | Brisbane | Adelaide | Perth | Hobart | Darwin

Other Formats:

Comma delimited format used in spreadsheet applications
http://www.bom.gov.au/fwo/IDT60901/IDT60901.95977.axf

JavaScript Object Notation format (JSON) in row-major order
http://www.bom.gov.au/fwo/IDT60901/IDT60901.95977.json